Chemroad Wing — 3EAB8 — position and weather

sailwx.info

Track history (hours):
 
Tides and Currents Weather Stations Pressure Air Temp Water Temp Dewpoint Dewpoint Depression Visibility Wind Speed Wind Dir Waves Ship Positions

Chemroad Wing

Last reported at 2016-Jul-25 12:33 UTC. Time now 2016-Jul-27 01:52 UTC.
Position N 24°50' E 120°23'.

Length 170 m; draft 8.5 m.

Type: Ship (hazmat cat B). MMSI: 357740000.

Date/timePositionNaut miles runAvg speedWind from/ knotsBaromVisibWave heightAir tempDewpointWater temp
2016-Jul-25 12:33N 24°50' E 120°23'1515.1
2016-Jul-25 11:33N 24°35' E 120°18'1714.7
2016-Jul-25 10:23N 24°19' E 120°12'1214.4
2016-Jul-25 09:33N 24°08' E 120°08'1413.6
2016-Jul-25 08:33N 23°55' E 120°05'9 0.6
2016-Jul-24 16:32N 23°46' E 120°08'1 0.2
2016-Jul-24 09:14N 23°46' E 120°07'1 0.1
2016-Jul-23 15:11N 23°47' E 120°08'3 0.1
2016-Jul-22 15:31N 23°48' E 120°10'40 8.2
2016-Jul-22 10:33N 24°25' E 119°53'1614.9
2016-Jul-22 09:27N 24°35' E 119°39'2914.9
2016-Jul-22 07:32N 24°51' E 119°13'23 7.8
2016-Jul-22 04:33N 25°11' E 118°59'0 0.0
2016-Jul-22 03:31N 25°11' E 118°59'0 0.0
2016-Jul-22 02:32N 25°11' E 118°59'0 0.0
2016-Jul-22 01:33N 25°11' E 118°59'0 0.0
2016-Jul-22 00:32N 25°11' E 118°59'0 0.0
2016-Jul-21 23:32N 25°11' E 118°59'0 0.0
2016-Jul-21 22:33N 25°11' E 118°59'0 0.0
2016-Jul-21 21:32N 25°11' E 118°59'0 0.0
2016-Jul-21 20:33N 25°11' E 118°59'0 0.0
2016-Jul-21 19:33N 25°11' E 118°59'0 0.0
2016-Jul-21 18:30N 25°11' E 118°59'0 0.0
2016-Jul-21 17:32N 25°11' E 118°59'0 0.0
2016-Jul-21 16:33N 25°11' E 118°59'0 0.0
2016-Jul-21 15:31N 25°11' E 118°59'0 0.0
2016-Jul-21 14:33N 25°11' E 118°59'0 0.0
2016-Jul-21 13:31N 25°11' E 118°59'0 0.0
2016-Jul-21 12:31N 25°11' E 118°59'0 0.0
2016-Jul-21 11:13N 25°11' E 118°59'0 0.0
2016-Jul-21 09:20N 25°11' E 118°59'0 0.0
2016-Jul-21 08:21N 25°11' E 118°59'0 0.0
2016-Jul-21 07:33N 25°11' E 118°59'0 0.0
2016-Jul-21 06:14N 25°11' E 118°59'0 0.0
2016-Jul-21 05:28N 25°11' E 118°59'0 0.0
2016-Jul-21 04:30N 25°11' E 118°59'0 0.0
2016-Jul-21 03:28N 25°11' E 118°59'0 0.0
2016-Jul-20 11:33N 25°11' E 118°59'0 0.0
2016-Jul-20 10:32N 25°11' E 118°59'0 0.0
2016-Jul-20 09:28N 25°11' E 118°59'0 0.0
2016-Jul-20 08:31N 25°11' E 118°59'0 0.0
2016-Jul-20 07:33N 25°11' E 118°59'1 1.0
2016-Jul-20 06:34N 25°10' E 118°59'14 0.3
2016-Jul-18 04:30N 24°58' E 119°08'0 0.0
2016-Jul-17 06:12N 24°58' E 119°08'0 0.0
2016-Jul-16 19:10N 24°59' E 119°08'0 0.0
2016-Jul-16 09:32N 24°59' E 119°08'8 8.2
2016-Jul-16 08:33N 24°51' E 119°09'1212.2
2016-Jul-16 07:33N 24°42' E 119°19'13213.0
2016-Jul-15 21:28N 22°35' E 119°54'  
Track history (hours):
 
Tides and Currents Weather Stations Pressure Air Temp Water Temp Dewpoint Dewpoint Depression Visibility Wind Speed Wind Dir Waves Ship Positions

Chemroad Wing

Last reported at 2016-Jul-25 12:33 UTC. Time now 2016-Jul-27 01:52 UTC.
Position N 24°50' E 120°23'.

Length 170 m; draft 8.5 m.

Type: Ship (hazmat cat B). MMSI: 357740000.

Date/timePositionNaut miles runAvg speedWind from/ knotsBaromVisibWave heightAir tempDewpointWater temp
2016-Jul-25 12:33N 24°50' E 120°23'1515.1
2016-Jul-25 11:33N 24°35' E 120°18'1714.7
2016-Jul-25 10:23N 24°19' E 120°12'1214.4
2016-Jul-25 09:33N 24°08' E 120°08'1413.6
2016-Jul-25 08:33N 23°55' E 120°05'9 0.6
2016-Jul-24 16:32N 23°46' E 120°08'1 0.2
2016-Jul-24 09:14N 23°46' E 120°07'1 0.1
2016-Jul-23 15:11N 23°47' E 120°08'3 0.1
2016-Jul-22 15:31N 23°48' E 120°10'40 8.2
2016-Jul-22 10:33N 24°25' E 119°53'1614.9
2016-Jul-22 09:27N 24°35' E 119°39'2914.9
2016-Jul-22 07:32N 24°51' E 119°13'23 7.8
2016-Jul-22 04:33N 25°11' E 118°59'0 0.0
2016-Jul-22 03:31N 25°11' E 118°59'0 0.0
2016-Jul-22 02:32N 25°11' E 118°59'0 0.0
2016-Jul-22 01:33N 25°11' E 118°59'0 0.0
2016-Jul-22 00:32N 25°11' E 118°59'0 0.0
2016-Jul-21 23:32N 25°11' E 118°59'0 0.0
2016-Jul-21 22:33N 25°11' E 118°59'0 0.0
2016-Jul-21 21:32N 25°11' E 118°59'0 0.0
2016-Jul-21 20:33N 25°11' E 118°59'0 0.0
2016-Jul-21 19:33N 25°11' E 118°59'0 0.0
2016-Jul-21 18:30N 25°11' E 118°59'0 0.0
2016-Jul-21 17:32N 25°11' E 118°59'0 0.0
2016-Jul-21 16:33N 25°11' E 118°59'0 0.0
2016-Jul-21 15:31N 25°11' E 118°59'0 0.0
2016-Jul-21 14:33N 25°11' E 118°59'0 0.0
2016-Jul-21 13:31N 25°11' E 118°59'0 0.0
2016-Jul-21 12:31N 25°11' E 118°59'0 0.0
2016-Jul-21 11:13N 25°11' E 118°59'0 0.0
2016-Jul-21 09:20N 25°11' E 118°59'0 0.0
2016-Jul-21 08:21N 25°11' E 118°59'0 0.0
2016-Jul-21 07:33N 25°11' E 118°59'0 0.0
2016-Jul-21 06:14N 25°11' E 118°59'0 0.0
2016-Jul-21 05:28N 25°11' E 118°59'0 0.0
2016-Jul-21 04:30N 25°11' E 118°59'0 0.0
2016-Jul-21 03:28N 25°11' E 118°59'0 0.0
2016-Jul-20 11:33N 25°11' E 118°59'0 0.0
2016-Jul-20 10:32N 25°11' E 118°59'0 0.0
2016-Jul-20 09:28N 25°11' E 118°59'0 0.0
2016-Jul-20 08:31N 25°11' E 118°59'0 0.0
2016-Jul-20 07:33N 25°11' E 118°59'1 1.0
2016-Jul-20 06:34N 25°10' E 118°59'14 0.3
2016-Jul-18 04:30N 24°58' E 119°08'0 0.0
2016-Jul-17 06:12N 24°58' E 119°08'0 0.0
2016-Jul-16 19:10N 24°59' E 119°08'0 0.0
2016-Jul-16 09:32N 24°59' E 119°08'8 8.2
2016-Jul-16 08:33N 24°51' E 119°09'1212.2
2016-Jul-16 07:33N 24°42' E 119°19'13213.0
2016-Jul-15 21:28N 22°35' E 119°54'  

Dump ship's entire track history